LFRU/MXN METAR and TAF weather

Enter ICAO airport designator
Station Type Date Time Source
LFRU METAR 2019/04/24 15:30 UTC NOAA

LFRU 241530Z AUTO 16016KT 130V190 9999 FEW040 14/04 Q0993


Station Type Date Time Source
LFRU Decoded METAR 2019/04/24 15:30 UTC NOAA

Morlaix / Ploujean, France (LFRU) 48-36N 003-49W
Apr 24, 2019 - 11:30 AM EDT / 2019.04.24 1530 UTC
Wind: from the SSE (160 degrees) at 18 MPH (16 KT) (direction variable):0
Visibility: greater than 7 mile(s):0
Sky conditions: mostly clear
Temperature: 57 F (14 C)
Dew Point: 39 F (4 C)
Relative Humidity: 50%
Pressure (altimeter): 29.32 in. Hg (0993 hPa)
ob: LFRU 241530Z AUTO 16016KT 130V190 9999 FEW040 14/04 Q0993
cycle: 15

Station Type Date Time Source
LFRU TAF UTC NOAA

Error!

Example: see airport list